sensor_id;sensor_type;location;lat;lon;timestamp;P1;durP1;ratioP1;P2;durP2;ratioP2
42972;SDS011;28610;51.214;6.962;2023-08-12T00:00:19;1.77;;;1.67;;
42972;SDS011;28610;51.214;6.962;2023-08-12T00:03:05;1.52;;;1.52;;
42972;SDS011;28610;51.214;6.962;2023-08-12T00:05:51;1.98;;;1.88;;
42972;SDS011;28610;51.214;6.962;2023-08-12T00:08:39;2.28;;;2.08;;
42972;SDS011;28610;51.214;6.962;2023-08-12T00:11:24;2.35;;;2.15;;
42972;SDS011;28610;51.214;6.962;2023-08-12T00:14:10;1.60;;;1.60;;
42972;SDS011;28610;51.214;6.962;2023-08-12T00:16:55;2.28;;;2.08;;
42972;SDS011;28610;51.214;6.962;2023-08-12T00:19:41;3.53;;;1.80;;
42972;SDS011;28610;51.214;6.962;2023-08-12T00:22:27;1.30;;;1.30;;
42972;SDS011;28610;51.214;6.962;2023-08-12T00:25:14;1.95;;;1.85;;
42972;SDS011;28610;51.214;6.962;2023-08-12T00:28:00;2.00;;;1.90;;
42972;SDS011;28610;51.214;6.962;2023-08-12T00:30:47;1.80;;;1.70;;
42972;SDS011;28610;51.214;6.962;2023-08-12T00:33:33;1.40;;;1.40;;
42972;SDS011;28610;51.214;6.962;2023-08-12T00:36:19;1.35;;;1.35;;
42972;SDS011;28610;51.214;6.962;2023-08-12T00:39:05;1.98;;;1.77;;
42972;SDS011;28610;51.214;6.962;2023-08-12T00:41:52;1.00;;;1.00;;
42972;SDS011;28610;51.214;6.962;2023-08-12T00:44:37;1.10;;;1.10;;
42972;SDS011;28610;51.214;6.962;2023-08-12T00:47:23;1.48;;;1.48;;
42972;SDS011;28610;51.214;6.962;2023-08-12T00:50:09;1.73;;;1.63;;
42972;SDS011;28610;51.214;6.962;2023-08-12T00:52:56;1.52;;;1.42;;
42972;SDS011;28610;51.214;6.962;2023-08-12T00:55:43;1.17;;;1.17;;
42972;SDS011;28610;51.214;6.962;2023-08-12T00:58:30;2.40;;;2.25;;
42972;SDS011;28610;51.214;6.962;2023-08-12T01:01:16;2.75;;;2.55;;
42972;SDS011;28610;51.214;6.962;2023-08-12T01:04:02;1.88;;;1.73;;
42972;SDS011;28610;51.214;6.962;2023-08-12T01:06:47;2.03;;;1.92;;
42972;SDS011;28610;51.214;6.962;2023-08-12T01:09:33;1.38;;;1.38;;
42972;SDS011;28610;51.214;6.962;2023-08-12T01:12:21;2.67;;;2.47;;
42972;SDS011;28610;51.214;6.962;2023-08-12T01:15:13;1.50;;;1.50;;
42972;SDS011;28610;51.214;6.962;2023-08-12T01:17:59;3.85;;;2.42;;
42972;SDS011;28610;51.214;6.962;2023-08-12T01:20:46;1.85;;;1.75;;
42972;SDS011;28610;51.214;6.962;2023-08-12T01:23:33;2.00;;;1.90;;
42972;SDS011;28610;51.214;6.962;2023-08-12T01:26:19;2.33;;;2.22;;
42972;SDS011;28610;51.214;6.962;2023-08-12T01:29:05;2.13;;;2.00;;
42972;SDS011;28610;51.214;6.962;2023-08-12T01:31:52;5.28;;;2.58;;
42972;SDS011;28610;51.214;6.962;2023-08-12T01:34:42;3.03;;;2.83;;
42972;SDS011;28610;51.214;6.962;2023-08-12T01:37:29;2.53;;;2.35;;
42972;SDS011;28610;51.214;6.962;2023-08-12T01:40:18;1.77;;;1.67;;
42972;SDS011;28610;51.214;6.962;2023-08-12T01:43:04;1.88;;;1.77;;
42972;SDS011;28610;51.214;6.962;2023-08-12T01:45:51;1.60;;;1.60;;
42972;SDS011;28610;51.214;6.962;2023-08-12T01:48:37;2.42;;;2.22;;
42972;SDS011;28610;51.214;6.962;2023-08-12T01:51:22;3.20;;;2.78;;
42972;SDS011;28610;51.214;6.962;2023-08-12T01:54:08;2.45;;;2.30;;
42972;SDS011;28610;51.214;6.962;2023-08-12T01:56:55;1.77;;;1.67;;
42972;SDS011;28610;51.214;6.962;2023-08-12T01:59:41;3.80;;;2.78;;
42972;SDS011;28610;51.214;6.962;2023-08-12T02:02:27;2.53;;;2.33;;
42972;SDS011;28610;51.214;6.962;2023-08-12T02:05:13;1.55;;;1.52;;
42972;SDS011;28610;51.214;6.962;2023-08-12T02:07:59;1.85;;;1.75;;
42972;SDS011;28610;51.214;6.962;2023-08-12T02:10:45;2.00;;;1.88;;
42972;SDS011;28610;51.214;6.962;2023-08-12T02:13:31;2.83;;;1.63;;
42972;SDS011;28610;51.214;6.962;2023-08-12T02:16:17;11.45;;;2.80;;
42972;SDS011;28610;51.214;6.962;2023-08-12T02:19:03;2.47;;;2.28;;
42972;SDS011;28610;51.214;6.962;2023-08-12T02:21:49;1.13;;;1.13;;
42972;SDS011;28610;51.214;6.962;2023-08-12T02:24:34;3.97;;;1.58;;
42972;SDS011;28610;51.214;6.962;2023-08-12T02:27:20;1.60;;;1.50;;
42972;SDS011;28610;51.214;6.962;2023-08-12T02:30:07;1.70;;;1.60;;
42972;SDS011;28610;51.214;6.962;2023-08-12T02:32:53;1.55;;;1.50;;
42972;SDS011;28610;51.214;6.962;2023-08-12T02:35:39;3.47;;;2.42;;
42972;SDS011;28610;51.214;6.962;2023-08-12T02:38:25;1.88;;;1.77;;
42972;SDS011;28610;51.214;6.962;2023-08-12T02:41:10;2.83;;;2.25;;
42972;SDS011;28610;51.214;6.962;2023-08-12T02:43:56;1.77;;;1.67;;
42972;SDS011;28610;51.214;6.962;2023-08-12T02:46:43;2.58;;;2.35;;
42972;SDS011;28610;51.214;6.962;2023-08-12T02:49:29;2.13;;;1.92;;
42972;SDS011;28610;51.214;6.962;2023-08-12T02:52:14;2.40;;;2.17;;
42972;SDS011;28610;51.214;6.962;2023-08-12T02:55:00;3.20;;;2.30;;
42972;SDS011;28610;51.214;6.962;2023-08-12T02:57:45;6.13;;;3.42;;
42972;SDS011;28610;51.214;6.962;2023-08-12T03:00:31;1.88;;;1.77;;
42972;SDS011;28610;51.214;6.962;2023-08-12T03:03:18;1.98;;;1.88;;
42972;SDS011;28610;51.214;6.962;2023-08-12T03:06:05;2.38;;;2.17;;
42972;SDS011;28610;51.214;6.962;2023-08-12T03:08:51;2.85;;;2.53;;
42972;SDS011;28610;51.214;6.962;2023-08-12T03:11:36;2.08;;;1.98;;
42972;SDS011;28610;51.214;6.962;2023-08-12T03:14:22;1.95;;;1.85;;
42972;SDS011;28610;51.214;6.962;2023-08-12T03:17:07;1.83;;;1.73;;
42972;SDS011;28610;51.214;6.962;2023-08-12T03:19:55;1.60;;;1.50;;
42972;SDS011;28610;51.214;6.962;2023-08-12T03:22:42;1.38;;;1.38;;
42972;SDS011;28610;51.214;6.962;2023-08-12T03:25:28;2.20;;;1.90;;
42972;SDS011;28610;51.214;6.962;2023-08-12T03:28:13;2.45;;;2.28;;
42972;SDS011;28610;51.214;6.962;2023-08-12T03:30:59;1.40;;;1.40;;
42972;SDS011;28610;51.214;6.962;2023-08-12T03:33:45;1.88;;;1.77;;
42972;SDS011;28610;51.214;6.962;2023-08-12T03:36:32;3.00;;;2.53;;
42972;SDS011;28610;51.214;6.962;2023-08-12T03:39:17;2.53;;;2.30;;
42972;SDS011;28610;51.214;6.962;2023-08-12T03:42:03;3.40;;;2.45;;
42972;SDS011;28610;51.214;6.962;2023-08-12T03:44:48;2.28;;;2.10;;
42972;SDS011;28610;51.214;6.962;2023-08-12T03:47:34;1.55;;;1.55;;
42972;SDS011;28610;51.214;6.962;2023-08-12T03:50:19;2.45;;;2.25;;
42972;SDS011;28610;51.214;6.962;2023-08-12T03:53:06;4.25;;;2.08;;
42972;SDS011;28610;51.214;6.962;2023-08-12T03:55:52;1.80;;;1.70;;
42972;SDS011;28610;51.214;6.962;2023-08-12T03:58:38;1.40;;;1.40;;
42972;SDS011;28610;51.214;6.962;2023-08-12T04:01:23;1.42;;;1.42;;
42972;SDS011;28610;51.214;6.962;2023-08-12T04:04:09;3.35;;;2.70;;
42972;SDS011;28610;51.214;6.962;2023-08-12T04:06:54;6.22;;;2.40;;
42972;SDS011;28610;51.214;6.962;2023-08-12T04:09:41;1.58;;;1.48;;
42972;SDS011;28610;51.214;6.962;2023-08-12T04:12:27;1.80;;;1.70;;
42972;SDS011;28610;51.214;6.962;2023-08-12T04:15:13;1.20;;;1.20;;
42972;SDS011;28610;51.214;6.962;2023-08-12T04:17:58;1.38;;;1.38;;
42972;SDS011;28610;51.214;6.962;2023-08-12T04:20:44;1.42;;;1.33;;
42972;SDS011;28610;51.214;6.962;2023-08-12T04:23:31;1.50;;;1.50;;
42972;SDS011;28610;51.214;6.962;2023-08-12T04:26:18;1.60;;;1.60;;
42972;SDS011;28610;51.214;6.962;2023-08-12T04:29:04;1.08;;;1.08;;
42972;SDS011;28610;51.214;6.962;2023-08-12T04:31:49;2.67;;;1.88;;
42972;SDS011;28610;51.214;6.962;2023-08-12T04:34:36;1.83;;;1.73;;
42972;SDS011;28610;51.214;6.962;2023-08-12T04:37:22;1.90;;;1.80;;
42972;SDS011;28610;51.214;6.962;2023-08-12T04:40:09;1.48;;;1.42;;
42972;SDS011;28610;51.214;6.962;2023-08-12T04:42:56;1.30;;;1.30;;
42972;SDS011;28610;51.214;6.962;2023-08-12T04:45:44;1.45;;;1.42;;
42972;SDS011;28610;51.214;6.962;2023-08-12T04:48:30;1.33;;;1.33;;
42972;SDS011;28610;51.214;6.962;2023-08-12T04:51:16;1.73;;;1.63;;
42972;SDS011;28610;51.214;6.962;2023-08-12T04:54:02;1.33;;;1.33;;
42972;SDS011;28610;51.214;6.962;2023-08-12T04:56:48;1.27;;;1.27;;
42972;SDS011;28610;51.214;6.962;2023-08-12T04:59:35;1.33;;;1.33;;
42972;SDS011;28610;51.214;6.962;2023-08-12T05:02:20;1.10;;;1.10;;
42972;SDS011;28610;51.214;6.962;2023-08-12T05:05:06;1.35;;;1.35;;
42972;SDS011;28610;51.214;6.962;2023-08-12T05:07:52;4.68;;;1.60;;
42972;SDS011;28610;51.214;6.962;2023-08-12T05:10:37;1.27;;;1.27;;
42972;SDS011;28610;51.214;6.962;2023-08-12T05:13:23;1.60;;;1.50;;
42972;SDS011;28610;51.214;6.962;2023-08-12T05:16:10;0.95;;;0.95;;
42972;SDS011;28610;51.214;6.962;2023-08-12T05:18:55;1.20;;;1.20;;
42972;SDS011;28610;51.214;6.962;2023-08-12T05:21:41;2.15;;;1.88;;
42972;SDS011;28610;51.214;6.962;2023-08-12T05:24:27;1.52;;;1.52;;
42972;SDS011;28610;51.214;6.962;2023-08-12T05:27:12;1.77;;;1.67;;
42972;SDS011;28610;51.214;6.962;2023-08-12T05:29:58;1.80;;;1.70;;
42972;SDS011;28610;51.214;6.962;2023-08-12T05:32:45;1.50;;;1.40;;
42972;SDS011;28610;51.214;6.962;2023-08-12T05:35:32;1.40;;;1.38;;
42972;SDS011;28610;51.214;6.962;2023-08-12T05:38:18;1.73;;;1.63;;
42972;SDS011;28610;51.214;6.962;2023-08-12T05:41:03;1.83;;;1.27;;
42972;SDS011;28610;51.214;6.962;2023-08-12T05:43:50;1.10;;;1.10;;
42972;SDS011;28610;51.214;6.962;2023-08-12T05:46:36;3.05;;;1.90;;
42972;SDS011;28610;51.214;6.962;2023-08-12T05:49:23;1.65;;;1.55;;
42972;SDS011;28610;51.214;6.962;2023-08-12T05:52:09;1.73;;;1.63;;
42972;SDS011;28610;51.214;6.962;2023-08-12T05:54:54;1.35;;;1.35;;
42972;SDS011;28610;51.214;6.962;2023-08-12T05:57:40;1.20;;;1.20;;
42972;SDS011;28610;51.214;6.962;2023-08-12T06:00:26;1.42;;;1.40;;
42972;SDS011;28610;51.214;6.962;2023-08-12T06:03:12;1.42;;;1.13;;
42972;SDS011;28610;51.214;6.962;2023-08-12T06:05:58;1.10;;;1.10;;
42972;SDS011;28610;51.214;6.962;2023-08-12T06:08:44;1.33;;;1.23;;
42972;SDS011;28610;51.214;6.962;2023-08-12T06:11:30;1.40;;;1.40;;
42972;SDS011;28610;51.214;6.962;2023-08-12T06:14:15;1.13;;;1.13;;
42972;SDS011;28610;51.214;6.962;2023-08-12T06:17:01;1.73;;;1.63;;
42972;SDS011;28610;51.214;6.962;2023-08-12T06:19:46;1.27;;;1.27;;
42972;SDS011;28610;51.214;6.962;2023-08-12T06:22:33;10.30;;;2.53;;
42972;SDS011;28610;51.214;6.962;2023-08-12T06:25:19;1.42;;;1.42;;
42972;SDS011;28610;51.214;6.962;2023-08-12T06:28:05;2.25;;;1.40;;
42972;SDS011;28610;51.214;6.962;2023-08-12T06:30:52;1.33;;;1.33;;
42972;SDS011;28610;51.214;6.962;2023-08-12T06:33:38;1.52;;;1.50;;
42972;SDS011;28610;51.214;6.962;2023-08-12T06:36:24;1.52;;;1.48;;
42972;SDS011;28610;51.214;6.962;2023-08-12T06:39:11;1.75;;;1.67;;
42972;SDS011;28610;51.214;6.962;2023-08-12T06:41:57;1.55;;;1.48;;
42972;SDS011;28610;51.214;6.962;2023-08-12T06:44:42;1.50;;;1.40;;
42972;SDS011;28610;51.214;6.962;2023-08-12T06:47:28;2.00;;;1.90;;
42972;SDS011;28610;51.214;6.962;2023-08-12T06:50:13;1.83;;;1.73;;
42972;SDS011;28610;51.214;6.962;2023-08-12T06:52:59;1.50;;;1.40;;
42972;SDS011;28610;51.214;6.962;2023-08-12T06:55:47;1.70;;;1.60;;
42972;SDS011;28610;51.214;6.962;2023-08-12T06:58:32;3.05;;;2.00;;
42972;SDS011;28610;51.214;6.962;2023-08-12T07:01:18;2.00;;;1.90;;
42972;SDS011;28610;51.214;6.962;2023-08-12T07:04:04;1.90;;;1.80;;
42972;SDS011;28610;51.214;6.962;2023-08-12T07:06:49;1.52;;;1.50;;
42972;SDS011;28610;51.214;6.962;2023-08-12T07:09:35;1.63;;;1.52;;
42972;SDS011;28610;51.214;6.962;2023-08-12T07:12:22;2.55;;;2.28;;
42972;SDS011;28610;51.214;6.962;2023-08-12T07:15:08;1.65;;;1.60;;
42972;SDS011;28610;51.214;6.962;2023-08-12T07:17:55;1.55;;;1.55;;
42972;SDS011;28610;51.214;6.962;2023-08-12T07:20:41;1.23;;;1.23;;
42972;SDS011;28610;51.214;6.962;2023-08-12T07:23:26;1.20;;;1.20;;
42972;SDS011;28610;51.214;6.962;2023-08-12T07:26:12;1.75;;;1.65;;
42972;SDS011;28610;51.214;6.962;2023-08-12T07:28:58;1.58;;;1.55;;
42972;SDS011;28610;51.214;6.962;2023-08-12T07:31:45;1.65;;;1.55;;
42972;SDS011;28610;51.214;6.962;2023-08-12T07:34:30;1.55;;;1.48;;
42972;SDS011;28610;51.214;6.962;2023-08-12T07:37:16;1.67;;;1.58;;
42972;SDS011;28610;51.214;6.962;2023-08-12T07:40:01;1.70;;;1.60;;
42972;SDS011;28610;51.214;6.962;2023-08-12T07:42:47;1.92;;;1.83;;
42972;SDS011;28610;51.214;6.962;2023-08-12T07:45:35;1.20;;;1.20;;
42972;SDS011;28610;51.214;6.962;2023-08-12T07:48:20;1.85;;;1.75;;
42972;SDS011;28610;51.214;6.962;2023-08-12T07:51:06;1.60;;;1.55;;
42972;SDS011;28610;51.214;6.962;2023-08-12T07:53:52;1.92;;;1.80;;
42972;SDS011;28610;51.214;6.962;2023-08-12T07:56:37;1.23;;;1.23;;
42972;SDS011;28610;51.214;6.962;2023-08-12T07:59:23;2.40;;;2.20;;
42972;SDS011;28610;51.214;6.962;2023-08-12T08:02:11;2.00;;;1.90;;
42972;SDS011;28610;51.214;6.962;2023-08-12T08:04:56;4.03;;;1.85;;
42972;SDS011;28610;51.214;6.962;2023-08-12T08:07:42;1.65;;;1.65;;
42972;SDS011;28610;51.214;6.962;2023-08-12T08:10:27;1.83;;;1.75;;
42972;SDS011;28610;51.214;6.962;2023-08-12T08:13:13;2.13;;;1.98;;
42972;SDS011;28610;51.214;6.962;2023-08-12T08:15:59;1.10;;;1.10;;
42972;SDS011;28610;51.214;6.962;2023-08-12T08:18:46;3.50;;;1.30;;
42972;SDS011;28610;51.214;6.962;2023-08-12T08:21:31;1.42;;;1.42;;
42972;SDS011;28610;51.214;6.962;2023-08-12T08:24:17;1.95;;;1.85;;
42972;SDS011;28610;51.214;6.962;2023-08-12T08:27:03;1.63;;;1.52;;
42972;SDS011;28610;51.214;6.962;2023-08-12T08:29:49;1.60;;;1.50;;
42972;SDS011;28610;51.214;6.962;2023-08-12T08:32:34;2.03;;;1.92;;
42972;SDS011;28610;51.214;6.962;2023-08-12T08:35:21;1.70;;;1.67;;
42972;SDS011;28610;51.214;6.962;2023-08-12T08:38:07;1.20;;;1.20;;
42972;SDS011;28610;51.214;6.962;2023-08-12T08:40:54;1.80;;;1.58;;
42972;SDS011;28610;51.214;6.962;2023-08-12T08:43:43;1.30;;;1.30;;
42972;SDS011;28610;51.214;6.962;2023-08-12T08:46:29;1.20;;;1.20;;
42972;SDS011;28610;51.214;6.962;2023-08-12T08:49:14;1.70;;;1.52;;
42972;SDS011;28610;51.214;6.962;2023-08-12T08:52:02;1.92;;;1.75;;
42972;SDS011;28610;51.214;6.962;2023-08-12T08:54:48;1.70;;;1.60;;
42972;SDS011;28610;51.214;6.962;2023-08-12T08:57:34;1.20;;;1.20;;
42972;SDS011;28610;51.214;6.962;2023-08-12T09:00:20;1.08;;;1.08;;
42972;SDS011;28610;51.214;6.962;2023-08-12T09:03:06;1.15;;;1.15;;
42972;SDS011;28610;51.214;6.962;2023-08-12T09:05:53;1.52;;;1.50;;
42972;SDS011;28610;51.214;6.962;2023-08-12T09:08:42;1.23;;;1.23;;
42972;SDS011;28610;51.214;6.962;2023-08-12T09:11:29;1.25;;;1.25;;
42972;SDS011;28610;51.214;6.962;2023-08-12T09:14:15;1.10;;;1.10;;
42972;SDS011;28610;51.214;6.962;2023-08-12T09:17:01;2.38;;;1.77;;
42972;SDS011;28610;51.214;6.962;2023-08-12T09:19:47;1.05;;;1.05;;
42972;SDS011;28610;51.214;6.962;2023-08-12T09:22:33;1.77;;;1.67;;
42972;SDS011;28610;51.214;6.962;2023-08-12T09:25:20;1.35;;;1.30;;
42972;SDS011;28610;51.214;6.962;2023-08-12T09:28:07;1.45;;;1.38;;
42972;SDS011;28610;51.214;6.962;2023-08-12T09:30:54;1.13;;;1.00;;
42972;SDS011;28610;51.214;6.962;2023-08-12T09:33:40;1.73;;;1.63;;
42972;SDS011;28610;51.214;6.962;2023-08-12T09:36:27;2.30;;;1.40;;
42972;SDS011;28610;51.214;6.962;2023-08-12T09:39:14;0.98;;;0.98;;
42972;SDS011;28610;51.214;6.962;2023-08-12T09:42:01;1.38;;;1.38;;
42972;SDS011;28610;51.214;6.962;2023-08-12T09:44:47;1.05;;;1.05;;
42972;SDS011;28610;51.214;6.962;2023-08-12T09:47:33;1.23;;;1.20;;
42972;SDS011;28610;51.214;6.962;2023-08-12T09:50:20;0.80;;;0.80;;
42972;SDS011;28610;51.214;6.962;2023-08-12T09:53:06;1.88;;;1.77;;
42972;SDS011;28610;51.214;6.962;2023-08-12T09:55:52;1.30;;;1.20;;
42972;SDS011;28610;51.214;6.962;2023-08-12T09:58:39;2.03;;;1.65;;
42972;SDS011;28610;51.214;6.962;2023-08-12T10:01:26;3.33;;;1.98;;
42972;SDS011;28610;51.214;6.962;2023-08-12T10:04:12;1.30;;;1.30;;
42972;SDS011;28610;51.214;6.962;2023-08-12T10:07:00;1.10;;;1.10;;
42972;SDS011;28610;51.214;6.962;2023-08-12T10:09:48;1.58;;;1.48;;
42972;SDS011;28610;51.214;6.962;2023-08-12T10:12:33;0.95;;;0.95;;
42972;SDS011;28610;51.214;6.962;2023-08-12T10:15:21;1.35;;;1.25;;
42972;SDS011;28610;51.214;6.962;2023-08-12T10:18:07;1.05;;;1.05;;
42972;SDS011;28610;51.214;6.962;2023-08-12T10:20:53;1.00;;;1.00;;
42972;SDS011;28610;51.214;6.962;2023-08-12T10:23:40;1.00;;;1.00;;
42972;SDS011;28610;51.214;6.962;2023-08-12T10:26:26;1.75;;;1.58;;
42972;SDS011;28610;51.214;6.962;2023-08-12T10:29:13;1.10;;;1.10;;
42972;SDS011;28610;51.214;6.962;2023-08-12T10:32:00;1.17;;;1.17;;
42972;SDS011;28610;51.214;6.962;2023-08-12T10:34:46;1.48;;;1.38;;
42972;SDS011;28610;51.214;6.962;2023-08-12T10:37:39;1.00;;;1.00;;
42972;SDS011;28610;51.214;6.962;2023-08-12T10:40:26;1.02;;;1.02;;
42972;SDS011;28610;51.214;6.962;2023-08-12T10:43:12;1.23;;;1.20;;
42972;SDS011;28610;51.214;6.962;2023-08-12T10:45:58;0.88;;;0.88;;
42972;SDS011;28610;51.214;6.962;2023-08-12T10:48:48;1.20;;;1.20;;
42972;SDS011;28610;51.214;6.962;2023-08-12T10:51:42;0.75;;;0.75;;
42972;SDS011;28610;51.214;6.962;2023-08-12T10:54:29;0.90;;;0.90;;
42972;SDS011;28610;51.214;6.962;2023-08-12T10:57:15;1.20;;;1.20;;
42972;SDS011;28610;51.214;6.962;2023-08-12T11:00:02;0.90;;;0.90;;
42972;SDS011;28610;51.214;6.962;2023-08-12T11:02:48;1.00;;;1.00;;
42972;SDS011;28610;51.214;6.962;2023-08-12T11:05:37;2.15;;;1.13;;
42972;SDS011;28610;51.214;6.962;2023-08-12T11:08:26;1.05;;;1.05;;
42972;SDS011;28610;51.214;6.962;2023-08-12T11:11:18;1.05;;;1.00;;
42972;SDS011;28610;51.214;6.962;2023-08-12T11:14:11;2.25;;;1.02;;
42972;SDS011;28610;51.214;6.962;2023-08-12T11:16:56;1.10;;;1.10;;
42972;SDS011;28610;51.214;6.962;2023-08-12T11:19:42;0.85;;;0.85;;
42972;SDS011;28610;51.214;6.962;2023-08-12T11:22:29;0.80;;;0.80;;
42972;SDS011;28610;51.214;6.962;2023-08-12T11:25:15;0.82;;;0.82;;
42972;SDS011;28610;51.214;6.962;2023-08-12T11:28:00;0.60;;;0.60;;
42972;SDS011;28610;51.214;6.962;2023-08-12T11:30:46;0.90;;;0.90;;
42972;SDS011;28610;51.214;6.962;2023-08-12T11:33:32;0.95;;;0.95;;
42972;SDS011;28610;51.214;6.962;2023-08-12T11:36:18;1.00;;;1.00;;
42972;SDS011;28610;51.214;6.962;2023-08-12T11:39:05;1.05;;;1.05;;
42972;SDS011;28610;51.214;6.962;2023-08-12T11:41:51;1.00;;;1.00;;
42972;SDS011;28610;51.214;6.962;2023-08-12T11:44:36;1.00;;;1.00;;
42972;SDS011;28610;51.214;6.962;2023-08-12T11:47:22;0.82;;;0.82;;
42972;SDS011;28610;51.214;6.962;2023-08-12T11:50:08;1.00;;;1.00;;
42972;SDS011;28610;51.214;6.962;2023-08-12T11:52:55;0.70;;;0.70;;
42972;SDS011;28610;51.214;6.962;2023-08-12T11:55:43;1.23;;;1.23;;
42972;SDS011;28610;51.214;6.962;2023-08-12T11:58:34;0.73;;;0.73;;
42972;SDS011;28610;51.214;6.962;2023-08-12T12:01:20;1.02;;;1.00;;
42972;SDS011;28610;51.214;6.962;2023-08-12T12:04:07;0.63;;;0.63;;
42972;SDS011;28610;51.214;6.962;2023-08-12T12:06:55;0.70;;;0.70;;
42972;SDS011;28610;51.214;6.962;2023-08-12T12:09:42;0.80;;;0.80;;
42972;SDS011;28610;51.214;6.962;2023-08-12T12:12:30;0.80;;;0.80;;
42972;SDS011;28610;51.214;6.962;2023-08-12T12:15:18;0.80;;;0.80;;
42972;SDS011;28610;51.214;6.962;2023-08-12T12:18:08;0.90;;;0.90;;
42972;SDS011;28610;51.214;6.962;2023-08-12T12:20:55;1.15;;;1.15;;
42972;SDS011;28610;51.214;6.962;2023-08-12T12:23:40;0.57;;;0.57;;
42972;SDS011;28610;51.214;6.962;2023-08-12T12:26:26;0.90;;;0.90;;
42972;SDS011;28610;51.214;6.962;2023-08-12T12:29:13;1.02;;;0.88;;
42972;SDS011;28610;51.214;6.962;2023-08-12T12:31:59;0.75;;;0.75;;
42972;SDS011;28610;51.214;6.962;2023-08-12T12:34:45;0.90;;;0.90;;
42972;SDS011;28610;51.214;6.962;2023-08-12T12:37:30;1.05;;;1.05;;
42972;SDS011;28610;51.214;6.962;2023-08-12T12:40:16;0.85;;;0.85;;
42972;SDS011;28610;51.214;6.962;2023-08-12T12:43:01;0.63;;;0.63;;
42972;SDS011;28610;51.214;6.962;2023-08-12T12:45:48;0.60;;;0.60;;
42972;SDS011;28610;51.214;6.962;2023-08-12T12:48:34;2.28;;;1.27;;
42972;SDS011;28610;51.214;6.962;2023-08-12T12:51:19;0.85;;;0.85;;
42972;SDS011;28610;51.214;6.962;2023-08-12T12:54:05;0.80;;;0.80;;
42972;SDS011;28610;51.214;6.962;2023-08-12T12:56:51;0.70;;;0.70;;
42972;SDS011;28610;51.214;6.962;2023-08-12T12:59:37;0.98;;;0.98;;
42972;SDS011;28610;51.214;6.962;2023-08-12T13:02:24;1.00;;;1.00;;
42972;SDS011;28610;51.214;6.962;2023-08-12T13:05:10;0.90;;;0.90;;
42972;SDS011;28610;51.214;6.962;2023-08-12T13:07:55;0.98;;;0.98;;
42972;SDS011;28610;51.214;6.962;2023-08-12T13:10:41;1.05;;;1.00;;
42972;SDS011;28610;51.214;6.962;2023-08-12T13:13:27;0.80;;;0.80;;
42972;SDS011;28610;51.214;6.962;2023-08-12T13:16:13;1.00;;;1.00;;
42972;SDS011;28610;51.214;6.962;2023-08-12T13:19:00;0.98;;;0.98;;
42972;SDS011;28610;51.214;6.962;2023-08-12T13:21:46;0.95;;;0.95;;
42972;SDS011;28610;51.214;6.962;2023-08-12T13:24:31;1.20;;;1.20;;
42972;SDS011;28610;51.214;6.962;2023-08-12T13:27:17;1.15;;;1.13;;
42972;SDS011;28610;51.214;6.962;2023-08-12T13:30:03;1.05;;;1.05;;
42972;SDS011;28610;51.214;6.962;2023-08-12T13:32:49;1.00;;;1.00;;
42972;SDS011;28610;51.214;6.962;2023-08-12T13:35:36;0.80;;;0.80;;
42972;SDS011;28610;51.214;6.962;2023-08-12T13:38:22;1.30;;;1.25;;
42972;SDS011;28610;51.214;6.962;2023-08-12T13:41:07;1.30;;;1.20;;
42972;SDS011;28610;51.214;6.962;2023-08-12T13:43:53;1.20;;;1.20;;
42972;SDS011;28610;51.214;6.962;2023-08-12T13:46:39;0.98;;;0.98;;
42972;SDS011;28610;51.214;6.962;2023-08-12T13:49:24;1.00;;;1.00;;
42972;SDS011;28610;51.214;6.962;2023-08-12T13:52:11;0.90;;;0.90;;
42972;SDS011;28610;51.214;6.962;2023-08-12T13:54:57;1.15;;;1.15;;
42972;SDS011;28610;51.214;6.962;2023-08-12T13:57:42;1.00;;;1.00;;
42972;SDS011;28610;51.214;6.962;2023-08-12T14:00:28;1.00;;;1.00;;
42972;SDS011;28610;51.214;6.962;2023-08-12T14:03:14;1.00;;;1.00;;
42972;SDS011;28610;51.214;6.962;2023-08-12T14:05:59;0.90;;;0.90;;
42972;SDS011;28610;51.214;6.962;2023-08-12T14:08:46;1.45;;;1.35;;
42972;SDS011;28610;51.214;6.962;2023-08-12T14:11:32;0.98;;;0.98;;
42972;SDS011;28610;51.214;6.962;2023-08-12T14:14:17;1.08;;;1.08;;
42972;SDS011;28610;51.214;6.962;2023-08-12T14:17:03;1.10;;;1.10;;
42972;SDS011;28610;51.214;6.962;2023-08-12T14:19:49;1.48;;;1.45;;
42972;SDS011;28610;51.214;6.962;2023-08-12T14:22:35;1.05;;;1.05;;
42972;SDS011;28610;51.214;6.962;2023-08-12T14:25:22;2.03;;;1.63;;
42972;SDS011;28610;51.214;6.962;2023-08-12T14:28:07;1.38;;;1.38;;
42972;SDS011;28610;51.214;6.962;2023-08-12T14:30:53;1.13;;;1.13;;
42972;SDS011;28610;51.214;6.962;2023-08-12T14:33:39;1.30;;;1.20;;
42972;SDS011;28610;51.214;6.962;2023-08-12T14:36:24;1.38;;;1.38;;
42972;SDS011;28610;51.214;6.962;2023-08-12T14:39:10;1.10;;;1.10;;
42972;SDS011;28610;51.214;6.962;2023-08-12T14:41:57;1.42;;;1.27;;
42972;SDS011;28610;51.214;6.962;2023-08-12T14:44:42;1.08;;;1.08;;
42972;SDS011;28610;51.214;6.962;2023-08-12T14:47:28;1.05;;;1.05;;
42972;SDS011;28610;51.214;6.962;2023-08-12T14:50:14;0.75;;;0.75;;
42972;SDS011;28610;51.214;6.962;2023-08-12T14:52:59;0.75;;;0.75;;
42972;SDS011;28610;51.214;6.962;2023-08-12T14:55:45;1.27;;;1.05;;
42972;SDS011;28610;51.214;6.962;2023-08-12T14:58:32;0.88;;;0.88;;
42972;SDS011;28610;51.214;6.962;2023-08-12T15:01:18;0.90;;;0.90;;
42972;SDS011;28610;51.214;6.962;2023-08-12T15:04:05;0.80;;;0.80;;
42972;SDS011;28610;51.214;6.962;2023-08-12T15:06:51;0.88;;;0.88;;
42972;SDS011;28610;51.214;6.962;2023-08-12T15:09:37;0.90;;;0.90;;
42972;SDS011;28610;51.214;6.962;2023-08-12T15:12:22;0.88;;;0.88;;
42972;SDS011;28610;51.214;6.962;2023-08-12T15:15:09;1.00;;;1.00;;
42972;SDS011;28610;51.214;6.962;2023-08-12T15:17:55;1.42;;;1.30;;
42972;SDS011;28610;51.214;6.962;2023-08-12T15:20:40;0.88;;;0.88;;
42972;SDS011;28610;51.214;6.962;2023-08-12T15:23:26;1.20;;;1.20;;
42972;SDS011;28610;51.214;6.962;2023-08-12T15:26:12;0.90;;;0.90;;
42972;SDS011;28610;51.214;6.962;2023-08-12T15:28:57;0.90;;;0.90;;
42972;SDS011;28610;51.214;6.962;2023-08-12T15:31:44;0.90;;;0.90;;
42972;SDS011;28610;51.214;6.962;2023-08-12T15:34:30;0.82;;;0.82;;
42972;SDS011;28610;51.214;6.962;2023-08-12T15:37:16;0.80;;;0.80;;
42972;SDS011;28610;51.214;6.962;2023-08-12T15:40:01;1.25;;;1.23;;
42972;SDS011;28610;51.214;6.962;2023-08-12T15:42:47;1.00;;;1.00;;
42972;SDS011;28610;51.214;6.962;2023-08-12T15:45:33;0.85;;;0.85;;
42972;SDS011;28610;51.214;6.962;2023-08-12T15:48:22;1.45;;;1.35;;
42972;SDS011;28610;51.214;6.962;2023-08-12T15:51:08;1.00;;;1.00;;
42972;SDS011;28610;51.214;6.962;2023-08-12T15:53:53;0.60;;;0.60;;
42972;SDS011;28610;51.214;6.962;2023-08-12T15:56:39;0.68;;;0.68;;
42972;SDS011;28610;51.214;6.962;2023-08-12T15:59:25;0.80;;;0.80;;
42972;SDS011;28610;51.214;6.962;2023-08-12T16:02:10;0.80;;;0.80;;
42972;SDS011;28610;51.214;6.962;2023-08-12T16:04:57;9.23;;;1.55;;
42972;SDS011;28610;51.214;6.962;2023-08-12T16:07:43;0.57;;;0.57;;
42972;SDS011;28610;51.214;6.962;2023-08-12T16:10:29;0.95;;;0.95;;
42972;SDS011;28610;51.214;6.962;2023-08-12T16:13:15;0.88;;;0.88;;
42972;SDS011;28610;51.214;6.962;2023-08-12T16:16:00;1.00;;;1.00;;
42972;SDS011;28610;51.214;6.962;2023-08-12T16:18:46;0.80;;;0.80;;
42972;SDS011;28610;51.214;6.962;2023-08-12T16:21:33;0.85;;;0.85;;
42972;SDS011;28610;51.214;6.962;2023-08-12T16:24:19;1.10;;;1.10;;
42972;SDS011;28610;51.214;6.962;2023-08-12T16:27:05;0.80;;;0.80;;
42972;SDS011;28610;51.214;6.962;2023-08-12T16:29:50;1.08;;;1.08;;
42972;SDS011;28610;51.214;6.962;2023-08-12T16:32:36;0.80;;;0.80;;
42972;SDS011;28610;51.214;6.962;2023-08-12T16:35:22;0.70;;;0.70;;
42972;SDS011;28610;51.214;6.962;2023-08-12T16:38:09;1.15;;;1.15;;
42972;SDS011;28610;51.214;6.962;2023-08-12T16:40:54;1.15;;;1.15;;